createdAt,value
2022-11-23T00:01:33.071Z,13.05
2022-11-23T00:04:04.812Z,15.98
2022-11-23T00:06:31.768Z,12.95
2022-11-23T00:08:59.335Z,10.57
2022-11-23T00:11:27.922Z,11.93
2022-11-23T00:13:55.333Z,18.50
2022-11-23T00:16:24.751Z,13.88
2022-11-23T00:18:56.551Z,12.63
2022-11-23T00:21:24.576Z,14.13
2022-11-23T00:23:51.931Z,13.05
2022-11-23T00:26:19.786Z,13.43
2022-11-23T00:28:46.753Z,17.17
2022-11-23T00:31:15.779Z,20.67
2022-11-23T00:33:42.616Z,18.37
2022-11-23T00:36:13.533Z,19.00
2022-11-23T00:38:41.027Z,15.02
2022-11-23T00:41:11.024Z,18.95
2022-11-23T00:43:37.988Z,14.48
2022-11-23T00:46:18.107Z,14.07
2022-11-23T00:48:46.515Z,14.85
2022-11-23T00:51:18.967Z,11.98
2022-11-23T00:53:46.290Z,10.55
2022-11-23T00:56:13.451Z,12.52
2022-11-23T00:58:40.458Z,14.63
2022-11-23T01:01:13.139Z,17.65
2022-11-23T01:03:43.103Z,15.82
2022-11-23T01:06:12.794Z,15.32
2022-11-23T01:08:40.183Z,18.30
2022-11-23T01:11:09.906Z,17.03
2022-11-23T01:13:38.649Z,15.27
2022-11-23T01:16:08.096Z,17.55
2022-11-23T01:18:34.841Z,15.23
2022-11-23T01:21:02.080Z,21.05
2022-11-23T01:23:29.845Z,17.93
2022-11-23T01:25:57.301Z,12.30
2022-11-23T01:28:24.519Z,16.17
2022-11-23T01:30:51.408Z,14.93
2022-11-23T01:33:18.247Z,13.02
2022-11-23T01:35:45.072Z,11.40
2022-11-23T01:38:17.839Z,11.60
2022-11-23T01:40:44.923Z,11.05
2022-11-23T01:43:16.569Z,9.35
2022-11-23T01:46:01.053Z,10.43
2022-11-23T01:48:42.852Z,11.07
2022-11-23T01:51:14.472Z,11.50
2022-11-23T01:53:42.429Z,9.95
2022-11-23T01:56:14.728Z,15.13
2022-11-23T01:58:45.633Z,12.60
2022-11-23T02:01:13.412Z,11.40
2022-11-23T02:03:42.511Z,14.30
2022-11-23T02:06:14.066Z,10.00
2022-11-23T02:08:41.894Z,14.23
2022-11-23T02:11:10.815Z,16.40
2022-11-23T02:13:37.845Z,18.50
2022-11-23T02:16:05.069Z,14.75
2022-11-23T02:18:34.614Z,15.75
2022-11-23T02:21:03.853Z,20.23
2022-11-23T02:23:36.543Z,15.63
2022-11-23T02:26:03.246Z,16.03
2022-11-23T02:28:43.343Z,15.52
2022-11-23T02:31:10.208Z,18.70
2022-11-23T02:33:41.335Z,18.40
2022-11-23T02:36:42.337Z,14.05
2022-11-23T02:39:14.004Z,11.03
2022-11-23T02:41:50.269Z,13.10
2022-11-23T02:44:50.978Z,25.05
2022-11-23T02:47:17.857Z,18.35
2022-11-23T02:49:48.736Z,20.10
2022-11-23T02:52:17.454Z,18.70
2022-11-23T02:54:44.739Z,15.15
2022-11-23T02:57:11.702Z,14.35
2022-11-23T02:59:38.493Z,15.77
2022-11-23T03:02:06.036Z,14.88
2022-11-23T03:04:33.187Z,13.70
2022-11-23T03:07:00.431Z,13.52
2022-11-23T03:09:27.339Z,13.98
2022-11-23T03:11:54.611Z,18.88
2022-11-23T03:14:21.841Z,14.38
2022-11-23T03:16:48.915Z,15.90
2022-11-23T03:19:15.887Z,13.68
2022-11-23T03:21:42.635Z,13.18
2022-11-23T03:24:09.473Z,12.15
2022-11-23T03:26:36.512Z,11.57
2022-11-23T03:29:03.507Z,12.10
2022-11-23T03:31:30.218Z,13.15
2022-11-23T03:33:57.091Z,11.63
2022-11-23T03:36:23.968Z,12.23
2022-11-23T03:38:50.801Z,11.55
2022-11-23T03:41:17.567Z,12.20
2022-11-23T03:43:44.342Z,10.73
2022-11-23T03:46:11.096Z,10.88
2022-11-23T03:48:37.943Z,13.45
2022-11-23T03:51:04.833Z,14.65
2022-11-23T03:53:31.612Z,12.70
2022-11-23T03:55:58.330Z,15.23
2022-11-23T03:58:25.212Z,16.08
2022-11-23T04:00:52.103Z,18.83
2022-11-23T04:03:18.898Z,19.63
2022-11-23T04:05:45.609Z,13.90
2022-11-23T04:08:12.578Z,14.75
2022-11-23T04:10:39.395Z,13.90
2022-11-23T04:13:06.141Z,12.27
2022-11-23T04:15:33.308Z,13.15
2022-11-23T04:18:00.225Z,18.37
2022-11-23T04:20:27.110Z,15.88
2022-11-23T04:22:54.054Z,13.15
2022-11-23T04:25:20.987Z,15.40
2022-11-23T04:27:47.910Z,15.30
2022-11-23T04:30:15.285Z,17.60
2022-11-23T04:32:45.189Z,16.60
2022-11-23T04:35:12.254Z,20.45
2022-11-23T04:37:39.024Z,18.42
2022-11-23T04:40:06.661Z,16.15
2022-11-23T04:42:33.482Z,17.77
2022-11-23T04:45:00.247Z,14.40
2022-11-23T04:47:27.081Z,18.83
2022-11-23T04:49:53.924Z,16.67
2022-11-23T04:52:20.764Z,16.02
2022-11-23T04:54:47.477Z,18.00
2022-11-23T04:57:14.238Z,16.15
2022-11-23T04:59:41.309Z,16.75
2022-11-23T05:02:08.155Z,15.05
2022-11-23T05:04:34.909Z,15.85
2022-11-23T05:07:01.940Z,14.23
2022-11-23T05:09:28.905Z,15.85
2022-11-23T05:11:55.733Z,11.85
2022-11-23T05:14:22.639Z,12.48
2022-11-23T05:16:49.416Z,14.40
2022-11-23T05:19:16.259Z,15.57
2022-11-23T05:21:43.001Z,15.80
2022-11-23T05:24:09.842Z,16.15
2022-11-23T05:26:36.649Z,15.07
2022-11-23T05:29:03.634Z,17.20
2022-11-23T05:31:30.487Z,16.20
2022-11-23T05:33:57.275Z,16.80
2022-11-23T05:36:24.202Z,18.15
2022-11-23T05:38:51.078Z,35.28
2022-11-23T05:41:18.022Z,24.13
2022-11-23T05:43:44.804Z,31.33
2022-11-23T05:46:11.722Z,21.60
2022-11-23T05:48:38.793Z,25.48
2022-11-23T05:51:05.810Z,20.13
2022-11-23T05:53:32.977Z,24.15
2022-11-23T05:56:02.845Z,27.90
2022-11-23T05:58:30.333Z,24.38
2022-11-23T06:00:58.923Z,27.27
2022-11-23T06:03:25.989Z,25.85
2022-11-23T06:05:52.883Z,22.83
2022-11-23T06:08:19.864Z,23.43
2022-11-23T06:10:46.791Z,24.23
2022-11-23T06:13:13.572Z,25.05
2022-11-23T06:15:40.289Z,19.83
2022-11-23T06:18:07.187Z,24.08
2022-11-23T06:20:33.985Z,23.33
2022-11-23T06:23:00.889Z,21.65
2022-11-23T06:25:27.742Z,15.82
2022-11-23T06:27:59.433Z,24.77
2022-11-23T06:30:27.488Z,24.38
2022-11-23T06:32:54.540Z,23.83
2022-11-23T06:35:21.385Z,24.20
2022-11-23T06:37:49.909Z,33.47
2022-11-23T06:40:17.299Z,27.45
2022-11-23T06:42:44.120Z,23.45
2022-11-23T06:45:11.553Z,30.40
2022-11-23T06:47:38.419Z,25.67
2022-11-23T06:50:05.798Z,32.60
2022-11-23T06:52:33.048Z,28.48
2022-11-23T06:54:59.851Z,28.60
2022-11-23T06:57:26.853Z,32.50
2022-11-23T06:59:53.767Z,36.22
2022-11-23T07:02:20.752Z,31.20
2022-11-23T07:04:47.608Z,22.85
2022-11-23T07:07:14.545Z,22.75
2022-11-23T07:09:41.385Z,22.17
2022-11-23T07:12:08.505Z,24.40
2022-11-23T07:14:35.412Z,27.60
2022-11-23T07:17:02.428Z,26.90
2022-11-23T07:19:29.661Z,35.15
2022-11-23T07:21:56.692Z,36.03
2022-11-23T07:24:23.592Z,38.63
2022-11-23T07:26:51.025Z,33.03
2022-11-23T07:29:17.946Z,32.75
2022-11-23T07:31:44.833Z,34.92
2022-11-23T07:34:11.698Z,29.07
2022-11-23T07:36:39.043Z,32.92
2022-11-23T07:39:05.987Z,36.05
2022-11-23T07:41:32.813Z,34.60
2022-11-23T07:43:59.893Z,33.72
2022-11-23T07:46:26.920Z,26.07
2022-11-23T07:48:53.944Z,25.73
2022-11-23T07:51:20.749Z,28.40
2022-11-23T07:53:47.696Z,27.05
2022-11-23T07:56:14.467Z,29.48
2022-11-23T07:58:41.385Z,29.13
2022-11-23T08:01:08.253Z,30.17
2022-11-23T08:03:35.343Z,30.08
2022-11-23T08:06:02.233Z,25.75
2022-11-23T08:08:29.166Z,25.25
2022-11-23T08:10:56.080Z,24.83
2022-11-23T08:13:23.394Z,28.27
2022-11-23T08:15:54.356Z,27.65
2022-11-23T08:18:23.463Z,28.13
2022-11-23T08:20:50.732Z,29.83
2022-11-23T08:23:17.623Z,25.23
2022-11-23T08:25:45.082Z,26.33
2022-11-23T08:28:12.539Z,26.85
2022-11-23T08:30:39.710Z,23.35
2022-11-23T08:33:07.740Z,24.40
2022-11-23T08:35:39.627Z,23.07
2022-11-23T08:38:08.416Z,19.35
2022-11-23T08:40:36.059Z,22.42
2022-11-23T08:43:03.825Z,18.67
2022-11-23T08:45:31.171Z,22.50
2022-11-23T08:48:02.041Z,21.33
2022-11-23T08:50:29.885Z,20.98
2022-11-23T08:52:58.999Z,23.48
2022-11-23T08:55:27.192Z,23.55
2022-11-23T08:57:58.180Z,25.10
2022-11-23T09:00:26.303Z,25.57
2022-11-23T09:02:53.670Z,24.88
2022-11-23T09:05:20.556Z,25.73
2022-11-23T09:07:47.607Z,25.85
2022-11-23T09:10:18.290Z,23.38
2022-11-23T09:12:46.953Z,24.77
2022-11-23T09:15:14.028Z,25.38
2022-11-23T09:17:40.793Z,28.23
2022-11-23T09:20:08.311Z,29.40
2022-11-23T09:22:35.262Z,26.00
2022-11-23T09:25:02.628Z,27.97
2022-11-23T09:27:29.685Z,26.23
2022-11-23T09:29:56.636Z,25.50
2022-11-23T09:32:23.404Z,26.75
2022-11-23T09:34:50.384Z,29.80
2022-11-23T09:37:17.127Z,29.63
2022-11-23T09:39:44.030Z,31.90
2022-11-23T09:42:25.737Z,27.52
2022-11-23T09:44:52.543Z,28.85
2022-11-23T09:47:56.415Z,26.00
2022-11-23T09:50:32.333Z,25.63
2022-11-23T09:53:07.531Z,26.45
2022-11-23T09:55:44.022Z,25.55
2022-11-23T10:16:10.082Z,19.52
2022-11-23T10:18:49.069Z,20.53
2022-11-23T10:21:24.268Z,14.82
2022-11-23T10:24:04.566Z,12.30
2022-11-23T10:26:39.271Z,12.50
2022-11-23T10:29:35.163Z,12.80
2022-11-23T10:32:02.153Z,11.80
2022-11-23T10:34:56.284Z,14.05
2022-11-23T10:37:23.130Z,12.82
2022-11-23T10:39:50.068Z,11.38
2022-11-23T10:42:42.732Z,13.13
2022-11-23T10:45:20.694Z,12.30
2022-11-23T10:47:53.242Z,14.15
2022-11-23T10:50:23.557Z,10.55
2022-11-23T10:53:00.026Z,10.63
2022-11-23T10:55:31.205Z,11.73
2022-11-23T10:57:59.127Z,10.97
2022-11-23T11:00:30.870Z,11.55
2022-11-23T11:02:59.388Z,10.27
2022-11-23T11:08:47.423Z,9.85
2022-11-23T11:11:25.330Z,12.60
2022-11-23T11:14:02.527Z,12.77
2022-11-23T11:16:37.809Z,12.32
2022-11-23T11:19:30.598Z,10.85
2022-11-23T11:21:59.566Z,10.57
2022-11-23T11:24:33.519Z,9.03
2022-11-23T11:27:03.450Z,7.25
2022-11-23T11:29:48.375Z,9.07
2022-11-23T11:32:40.251Z,8.77
2022-11-23T11:35:22.343Z,10.93
2022-11-23T11:37:56.621Z,7.00
2022-11-23T11:40:38.024Z,9.48
2022-11-23T11:43:39.092Z,10.13
2022-11-23T11:46:43.576Z,8.95
2022-11-23T11:49:19.486Z,9.05
2022-11-23T11:52:12.148Z,9.40
2022-11-23T11:55:00.077Z,9.20
2022-11-23T11:57:42.575Z,10.20
2022-11-23T12:00:20.655Z,10.52
2022-11-23T12:03:09.117Z,9.18
2022-11-23T12:05:49.693Z,8.50
2022-11-23T12:08:21.071Z,11.55
2022-11-23T12:10:54.834Z,12.00
2022-11-23T12:13:24.764Z,9.90
2022-11-23T12:16:28.988Z,11.85
2022-11-23T12:19:04.478Z,9.07
2022-11-23T12:21:50.106Z,10.25
2022-11-23T12:24:37.140Z,9.30
2022-11-23T12:27:23.760Z,7.03
2022-11-23T12:30:00.188Z,7.45
2022-11-23T12:32:52.947Z,14.63
2022-11-23T12:35:48.557Z,8.73
2022-11-23T12:38:24.163Z,10.77
2022-11-23T12:41:16.940Z,10.63
2022-11-23T12:44:04.797Z,9.65
2022-11-23T12:46:49.772Z,10.40
2022-11-23T12:49:54.064Z,7.75
2022-11-23T12:52:56.540Z,9.00
2022-11-23T12:55:33.256Z,9.98
2022-11-23T12:58:30.351Z,9.07
2022-11-23T13:01:10.200Z,8.50
2022-11-23T13:03:55.374Z,9.73
2022-11-23T13:07:26.727Z,10.85
2022-11-23T13:09:49.087Z,9.68
2022-11-23T13:12:23.300Z,10.82
2022-11-23T13:15:05.363Z,12.27
2022-11-23T13:17:59.650Z,10.50
2022-11-23T13:20:39.465Z,11.40
2022-11-23T13:23:06.510Z,13.90
2022-11-23T13:25:33.945Z,9.43
2022-11-23T13:28:05.214Z,11.70
2022-11-23T13:30:59.061Z,14.40
2022-11-23T13:33:26.585Z,10.27
2022-11-23T13:35:56.995Z,10.90
2022-11-23T13:38:26.143Z,9.88
2022-11-23T13:40:53.345Z,9.90
2022-11-23T13:43:33.400Z,12.18
2022-11-23T13:46:12.676Z,12.75
2022-11-23T13:48:57.885Z,13.27
2022-11-23T13:51:28.551Z,13.82
2022-11-23T13:54:06.266Z,14.27
2022-11-23T13:56:39.688Z,19.02
2022-11-23T13:59:24.697Z,21.85
2022-11-23T14:02:09.691Z,17.58
2022-11-23T14:04:46.458Z,15.98
2022-11-23T14:07:42.981Z,17.17
2022-11-23T14:10:24.621Z,17.23
2022-11-23T14:13:04.249Z,25.17
2022-11-23T14:15:34.948Z,21.10
2022-11-23T14:18:01.819Z,20.48
2022-11-23T14:20:37.438Z,28.30
2022-11-23T14:23:10.485Z,29.13
2022-11-23T14:26:08.025Z,21.13
2022-11-23T14:28:42.895Z,18.88
2022-11-23T14:31:21.640Z,29.83
2022-11-23T14:33:53.572Z,21.87
2022-11-23T14:36:23.194Z,32.65
2022-11-23T14:39:14.133Z,22.35
2022-11-23T14:41:41.328Z,21.27
2022-11-23T14:44:13.061Z,20.00
2022-11-23T14:47:00.492Z,32.90
2022-11-23T14:49:27.683Z,28.23
2022-11-23T14:51:54.631Z,23.33
2022-11-23T14:54:21.962Z,26.27
2022-11-23T14:56:51.495Z,31.25
2022-11-23T14:59:23.463Z,24.97
2022-11-23T15:01:57.863Z,29.08
2022-11-23T15:04:30.782Z,29.33
2022-11-23T15:07:04.951Z,31.75
2022-11-23T15:09:51.381Z,16.35
2022-11-23T15:12:28.273Z,17.73
2022-11-23T15:14:56.912Z,21.15
2022-11-23T15:17:24.706Z,22.50
2022-11-23T15:20:02.003Z,23.88
2022-11-23T15:22:29.675Z,23.35
2022-11-23T15:25:06.573Z,24.27
2022-11-23T15:27:33.578Z,23.52
2022-11-23T15:30:01.115Z,24.58
2022-11-23T15:32:33.128Z,28.90
2022-11-23T15:35:05.757Z,34.15
2022-11-23T15:37:34.751Z,28.53
2022-11-23T15:40:01.985Z,32.92
2022-11-23T15:42:29.257Z,28.67
2022-11-23T15:44:56.669Z,25.65
2022-11-23T15:47:27.402Z,30.60
2022-11-23T15:50:01.427Z,30.87
2022-11-23T15:52:33.342Z,33.78
2022-11-23T15:55:13.364Z,28.45
2022-11-23T15:57:41.303Z,30.45
2022-11-23T16:00:09.415Z,28.42
2022-11-23T16:02:36.388Z,29.67
2022-11-23T16:05:06.070Z,33.67
2022-11-23T16:07:32.969Z,29.65
2022-11-23T16:10:16.859Z,23.67
2022-11-23T16:12:51.184Z,28.25
2022-11-23T16:15:36.306Z,31.27
2022-11-23T16:18:24.346Z,30.92
2022-11-23T16:21:03.081Z,30.38
2022-11-23T16:23:48.343Z,27.77
2022-11-23T16:26:16.319Z,25.55
2022-11-23T16:28:55.384Z,29.40
2022-11-23T16:31:40.446Z,36.30
2022-11-23T16:34:18.458Z,36.08
2022-11-23T16:36:45.831Z,28.67
2022-11-23T16:39:12.815Z,25.52
2022-11-23T16:41:40.046Z,26.57
2022-11-23T16:44:06.929Z,29.90
2022-11-23T16:46:35.230Z,30.50
2022-11-23T16:49:04.798Z,33.42
2022-11-23T16:51:31.647Z,30.98
2022-11-23T16:54:16.048Z,27.80
2022-11-23T16:56:45.062Z,20.98
2022-11-23T16:59:21.045Z,31.20
2022-11-23T17:01:55.544Z,29.92
2022-11-23T17:04:24.592Z,24.88
2022-11-23T17:06:51.571Z,25.30
2022-11-23T17:09:21.496Z,31.20
2022-11-23T17:11:51.004Z,38.65
2022-11-23T17:14:25.309Z,30.35
2022-11-23T17:16:55.109Z,30.08
2022-11-23T17:19:24.407Z,28.03
2022-11-23T17:21:51.470Z,50.30
2022-11-23T17:24:18.541Z,58.10
2022-11-23T17:26:48.385Z,36.78
2022-11-23T17:29:18.179Z,37.03
2022-11-23T17:31:52.180Z,24.37
2022-11-23T17:34:20.156Z,28.98
2022-11-23T17:36:49.739Z,25.23
2022-11-23T17:39:24.053Z,20.35
2022-11-23T17:41:51.349Z,21.42
2022-11-23T17:44:18.404Z,19.23
2022-11-23T17:46:46.855Z,17.75
2022-11-23T17:49:17.874Z,19.80
2022-11-23T17:51:45.683Z,14.50
2022-11-23T17:54:12.625Z,19.85
2022-11-23T17:56:39.599Z,18.43
2022-11-23T17:59:06.593Z,15.75
2022-11-23T18:01:33.809Z,12.27
2022-11-23T18:04:00.975Z,13.85
2022-11-23T18:06:28.869Z,11.30
2022-11-23T18:08:55.991Z,13.03
2022-11-23T18:11:23.269Z,13.65
2022-11-23T18:13:51.036Z,12.18
2022-11-23T18:16:19.560Z,8.68
2022-11-23T18:18:46.909Z,10.00
2022-11-23T18:21:13.718Z,12.20
2022-11-23T18:23:42.582Z,10.15
2022-11-23T18:26:25.220Z,11.60
2022-11-23T18:28:52.372Z,9.15
2022-11-23T18:31:19.937Z,13.35
2022-11-23T18:33:47.186Z,10.67
2022-11-23T18:36:14.297Z,12.50
2022-11-23T18:38:42.007Z,12.23
2022-11-23T18:41:08.808Z,12.15
2022-11-23T18:43:35.901Z,12.05
2022-11-23T18:46:06.259Z,8.70
2022-11-23T18:48:33.398Z,10.57
2022-11-23T18:51:00.656Z,10.18
2022-11-23T18:53:27.902Z,11.07
2022-11-23T18:55:59.120Z,9.65
2022-11-23T18:58:36.017Z,10.57
2022-11-23T19:01:18.083Z,8.05
2022-11-23T19:03:47.072Z,8.15
2022-11-23T19:06:15.408Z,8.25
2022-11-23T19:08:48.542Z,9.35
2022-11-23T19:11:19.736Z,8.47
2022-11-23T19:13:49.136Z,7.97
2022-11-23T19:16:26.924Z,6.70
2022-11-23T19:18:55.474Z,12.38
2022-11-23T19:21:24.293Z,24.42
2022-11-23T19:23:53.393Z,19.70
2022-11-23T19:26:20.639Z,16.63
2022-11-23T19:28:48.004Z,13.70
2022-11-23T19:31:19.974Z,9.40
2022-11-23T19:33:49.044Z,8.38
2022-11-23T19:36:19.222Z,7.90
2022-11-23T19:38:46.559Z,7.85
2022-11-23T19:41:13.412Z,7.38
2022-11-23T19:43:40.612Z,9.23
2022-11-23T19:46:11.266Z,7.03
2022-11-23T19:48:38.337Z,8.57
2022-11-23T19:51:07.405Z,7.00
2022-11-23T19:53:36.225Z,8.10
2022-11-23T19:56:08.472Z,5.95
2022-11-23T19:58:35.645Z,6.55
2022-11-23T20:01:22.904Z,9.17
2022-11-23T20:03:52.469Z,6.93
2022-11-23T20:06:24.945Z,6.70
2022-11-23T20:09:02.493Z,7.03
2022-11-23T20:11:31.907Z,6.97
2022-11-23T20:13:59.216Z,7.53
2022-11-23T20:16:28.455Z,7.82
2022-11-23T20:18:57.978Z,8.80
2022-11-23T20:21:26.248Z,9.13
2022-11-23T20:24:13.226Z,11.40
2022-11-23T20:26:41.516Z,6.53
2022-11-23T20:29:10.752Z,6.28
2022-11-23T20:31:38.414Z,7.93
2022-11-23T20:34:08.150Z,11.70
2022-11-23T20:36:37.828Z,10.07
2022-11-23T20:39:07.151Z,10.97
2022-11-23T20:41:35.767Z,13.25
2022-11-23T20:44:05.369Z,14.48
2022-11-23T20:49:20.481Z,10.88
2022-11-23T20:51:47.350Z,10.33
2022-11-23T20:54:14.309Z,12.48
2022-11-23T20:56:41.120Z,10.07
2022-11-23T20:59:08.037Z,18.88
2022-11-23T21:01:35.128Z,29.17
2022-11-23T21:04:02.029Z,22.17
2022-11-23T21:06:29.199Z,14.07
2022-11-23T21:08:56.370Z,13.10
2022-11-23T21:11:25.062Z,11.43
2022-11-23T21:13:51.885Z,12.48
2022-11-23T21:16:18.837Z,10.97
2022-11-23T21:18:45.879Z,13.90
2022-11-23T21:21:12.834Z,10.88
2022-11-23T21:23:39.693Z,13.50
2022-11-23T21:26:07.068Z,18.60
2022-11-23T21:28:33.987Z,16.50
2022-11-23T21:31:08.023Z,16.35
2022-11-23T21:33:38.535Z,15.60
2022-11-23T21:36:06.267Z,15.73
2022-11-23T21:38:34.863Z,15.48
2022-11-23T21:41:02.670Z,15.30
2022-11-23T21:43:29.880Z,18.77
2022-11-23T21:46:05.501Z,15.13
2022-11-23T21:48:33.519Z,17.65
2022-11-23T21:51:02.713Z,14.05
2022-11-23T21:53:30.337Z,17.47
2022-11-23T21:56:02.258Z,16.65
2022-11-23T21:58:29.238Z,17.40
2022-11-23T22:01:02.711Z,15.77
2022-11-23T22:03:29.742Z,20.70
2022-11-23T22:05:57.294Z,14.87
2022-11-23T22:08:29.206Z,20.38
2022-11-23T22:10:56.655Z,18.10
2022-11-23T22:13:23.525Z,16.00
2022-11-23T22:15:50.343Z,16.38
2022-11-23T22:18:17.339Z,15.83
2022-11-23T22:20:44.203Z,15.93
2022-11-23T22:23:13.031Z,15.05
2022-11-23T22:25:42.993Z,16.85
2022-11-23T22:28:13.848Z,15.82
2022-11-23T22:30:40.623Z,14.90
2022-11-23T22:33:07.736Z,19.38
2022-11-23T22:35:34.548Z,19.70
2022-11-23T22:38:01.397Z,19.40
2022-11-23T22:40:28.248Z,17.02
2022-11-23T22:42:55.076Z,14.97
2022-11-23T22:45:22.076Z,15.60
2022-11-23T22:47:48.940Z,21.40
2022-11-23T22:50:16.146Z,16.95
2022-11-23T22:52:43.039Z,16.50
2022-11-23T22:55:10.182Z,17.40
2022-11-23T22:57:37.255Z,18.02
2022-11-23T23:00:05.171Z,17.33
2022-11-23T23:02:32.043Z,14.75
2022-11-23T23:04:59.056Z,17.65
2022-11-23T23:07:25.948Z,16.53
2022-11-23T23:09:52.977Z,17.55
2022-11-23T23:12:19.893Z,21.75
2022-11-23T23:14:46.808Z,17.63
2022-11-23T23:17:13.699Z,17.30
2022-11-23T23:19:40.711Z,19.37
2022-11-23T23:22:07.599Z,15.60
2022-11-23T23:24:34.974Z,16.85
2022-11-23T23:27:01.997Z,15.40
2022-11-23T23:29:28.962Z,17.50
2022-11-23T23:31:56.016Z,19.30
2022-11-23T23:34:23.043Z,18.95
2022-11-23T23:36:50.021Z,15.93
2022-11-23T23:39:16.861Z,15.60
2022-11-23T23:41:43.687Z,15.77
2022-11-23T23:44:10.727Z,16.07
2022-11-23T23:46:37.645Z,16.42
2022-11-23T23:49:04.502Z,13.82
2022-11-23T23:51:31.426Z,16.25
2022-11-23T23:53:58.394Z,16.08
2022-11-23T23:56:27.781Z,19.07
2022-11-23T23:58:56.327Z,16.77
